Nearby METAR Reports

 

KSEE - San Diego/Santee, California, USA
Distance from station: E 4mi, 6km
Updated: 05/21/2018 9:15pm
Overcast
Overcast
 Wind from SSW
Wind: SSW 5 mph , 7 km/h
Temperature: 59°F , 15°C
Dew Point: 52°F , 11°C
Humidity: 77%
Barometer: 29.89 inHg , 1012.2 hPa
Clouds: Overcast
Visibility: 10 miles , 16 km
Cloud details: Partly cloudy 1900 ft
Overcast 3100 ft
2018/05/22 04:15 KSEE 220415Z AUTO 20004KT 10SM SCT019 OVC031 15/11 A2989 RMK AO2
KMYF - San Diego/Mntgmy, California, USA
Distance from station: W 6mi, 10km
Updated: 05/21/2018 9:00pm
Overcast
Overcast
 Wind from WSW
Wind: WSW 7 mph , 11 km/h
Temperature: 59°F , 15°C
Dew Point: 52°F , 11°C
Humidity: 77%
Barometer: 29.90 inHg , 1012.5 hPa
Clouds: Overcast
Visibility: 10 miles , 16 km
Cloud details: Overcast 3100 ft
2018/05/22 04:00 KMYF 220400Z 24006KT 10SM OVC031 15/11 A2990 RMK AO2 T01500111
 
KNKX - Miramar Nas/San, California, USA
Distance from station: WNW 7mi, 11km
Updated: 05/21/2018 8:55pm
Overcast
Overcast
 Wind from calm
Wind: Calm
Temperature: 61°F , 16°C
Dew Point: 52°F , 11°C
Humidity: 72%
Barometer: 29.89 inHg , 1012.2 hPa
Clouds: Overcast
Visibility: 10 miles , 16 km
Cloud details: Few Clouds 2400 ft
Overcast 3000 ft
2018/05/22 03:55 KNKX 220355Z 00000KT 10SM FEW024 OVC030 16/11 A2989 RMK AO2 SLP118 T01610111 $
KSAN - San Diego, California, USA
Distance from station: WSW 11mi, 17km
Updated: 05/21/2018 8:51pm
Mostly cloudy
Mostly cloudy
 Wind from SW
Wind: SW 7 mph , 11 km/h
Temperature: 61°F , 16°C
Dew Point: 52°F , 11°C
Humidity: 72%
Barometer: 29.92 inHg , 1013.2 hPa
Clouds: Mostly cloudy
Visibility: 10 miles , 16 km
Cloud details: Partly cloudy 1200 ft
Partly cloudy 1800 ft
Mostly cloudy 2900 ft
2018/05/22 03:51 KSAN 220351Z 23006KT 10SM SCT012 SCT018 BKN029 16/11 A2992 RMK AO2 SLP130 T01610111
 
KNZY - North Island Nas, California, USA
Distance from station: SW 13mi, 22km
Updated: 05/21/2018 8:52pm
Overcast
Overcast
 Wind from SSW
Wind: SSW 7 mph , 11 km/h
Temperature: 61°F , 16°C
Dew Point: 52°F , 11°C
Humidity: 72%
Barometer: 29.89 inHg , 1012.2 hPa
Clouds: Overcast
Visibility: 10 miles , 16 km
Cloud details: Mostly cloudy 2000 ft
Overcast 3200 ft
2018/05/22 03:52 KNZY 220352Z 21006KT 10SM BKN020 OVC032 16/11 A2989 RMK SLP122 T01560111
KRNM - Ramona, California, USA
Distance from station: NNE 16mi, 26km
Updated: 05/21/2018 8:53pm
Overcast
Overcast
 Wind from S
Wind: S 6 mph , 9 km/h
Temperature: 57°F , 14°C
Dew Point: 48°F , 9°C
Humidity: 72%
Barometer: 29.89 inHg , 1012.2 hPa
Clouds: Overcast
Visibility: 10 miles , 16 km
Cloud details: Overcast 2100 ft
2018/05/22 03:53 KRNM 220353Z AUTO 19005KT 10SM OVC021 14/09 A2989 RMK AO2 SLP115 T01390094
 
KSDM - San Diego/Brown, California, USA
Distance from station: S 16mi, 26km
Updated: 05/21/2018 8:53pm
Overcast
Overcast
 Wind from WSW
Wind: WSW 7 mph , 11 km/h
Temperature: 57°F , 14°C
Dew Point: 52°F , 11°C
Humidity: 82%
Barometer: 29.90 inHg , 1012.5 hPa
Clouds: Overcast
Visibility: 10 miles , 16 km
Cloud details: Overcast 2500 ft
2018/05/22 03:53 KSDM 220353Z AUTO 25006KT 10SM OVC025 14/11 A2990 RMK AO2 RAE09 SLP123 P0000 T01440111
KNRS - Imperial Beach, California, USA
Distance from station: SSW 18mi, 29km
Updated: 05/21/2018 8:56pm
Overcast
Overcast
 Wind from varies
Wind: varies 6 mph , 9 km/h
Temperature: 61°F , 16°C
Dew Point: 52°F , 11°C
Humidity: 72%
Barometer: 29.91 inHg , 1012.9 hPa
Clouds: Overcast
Visibility: 10 miles , 16 km
Cloud details: Partly cloudy 1200 ft
Mostly cloudy 2000 ft
Overcast 3500 ft
2018/05/22 03:56 KNRS 220356Z VRB05KT 10SM SCT012 BKN020 OVC035 16/11 A2991 RMK AO2 SLP128 T01560106
 
MMTJ - Tijuana Intl Arp, Mexico
Distance from station: S 20mi, 32km
Updated: 05/21/2018 8:50pm
Mostly cloudy
Mostly cloudy
 Wind from W
Wind: W 5 mph , 7 km/h
Temperature: 57°F , 14°C
Dew Point: 52°F , 11°C
Humidity: 82%
Barometer: 29.93 inHg , 1013.5 hPa
Clouds: Mostly cloudy
Visibility: 5 miles , 8 km
Cloud details: Mostly cloudy 1500 ft
2018/05/22 03:50 MMTJ 220350Z 26004KT 5SM BKN015 14/11 A2993 RMK 8/500 HZY
KCRQ - Carlsbad, California, USA
Distance from station: NW 26mi, 43km
Updated: 05/21/2018 8:53pm
Overcast
Overcast
 Wind from S
Wind: S 3 mph , 6 km/h
Temperature: 57°F , 14°C
Dew Point: 55°F , 13°C
Humidity: 94%
Barometer: 29.88 inHg , 1011.9 hPa
Clouds: Overcast
Visibility: 10 miles , 16 km
Cloud details: Overcast 2300 ft
2018/05/22 03:53 KCRQ 220353Z 18003KT 10SM OVC023 14/13 A2988 RMK AO2 SLP118 T01440128
 
KOKB - Oceanside, California, USA
Distance from station: NW 33mi, 54km
Updated: 05/21/2018 8:52pm
Overcast
Overcast
 Wind from SSW
Wind: SSW 7 mph , 11 km/h
Temperature: 61°F , 16°C
Dew Point: 52°F , 11°C
Humidity: 72%
Barometer: 29.88 inHg , 1011.9 hPa
Clouds: Overcast
Visibility: 10 miles , 16 km
Cloud details: Partly cloudy 2200 ft
Overcast 2900 ft
2018/05/22 03:52 KOKB 220352Z AUTO 21006KT 10SM SCT022 OVC029 16/11 A2988 RMK AO2 RAB35E44 SLP118 P0000 T01610111
KCZZ - Campo, California, USA
Distance from station: ESE 35mi, 56km
Updated: 05/21/2018 8:52pm

 Wind from SW
Wind: SW 12 mph , 19 km/h
Temperature: 52°F , 11°C
Dew Point: 46°F , 8°C
Humidity: 82%
Barometer: 29.86 inHg , 1011.2 hPa
2018/05/22 03:52 KCZZ 220352Z AUTO 22010KT 11/08 A2986 RMK AO1 SLP093 T01110083
 
KNFG - Camp Pendleton, California, USA
Distance from station: NNW 37mi, 59km
Updated: 05/21/2018 8:55pm
Overcast
Overcast
 Wind from calm
Wind: Calm
Temperature: 59°F , 15°C
Dew Point: 54°F , 12°C
Humidity: 82%
Barometer: 29.89 inHg , 1012.2 hPa
Clouds: Overcast
Visibility: 10 miles , 16 km
Cloud details: Partly cloudy 1800 ft
Mostly cloudy 2400 ft
Overcast 3300 ft
2018/05/22 03:55 KNFG 220355Z 00000KT 10SM SCT018 BKN024 OVC033 15/12 A2989 RMK AO2 RAB22E31 SLP119 P0000 T01500122 $
KRIV - Riverside/March, California, USA
Distance from station: N 74mi, 119km
Updated: 05/21/2018 8:58pm
Overcast
Overcast
 Wind from WNW
Wind: WNW 7 mph , 11 km/h
Temperature: 57°F , 14°C
Dew Point: 52°F , 11°C
Humidity: 82%
Barometer: 29.87 inHg , 1011.5 hPa
Clouds: Overcast
Visibility: 10 miles , 16 km
Cloud details: Few Clouds 2500 ft
Overcast 3700 ft
2018/05/22 03:58 KRIV 220358Z AUTO 29006KT 10SM FEW025 OVC037 14/11 A2987 RMK AO2 SLP110 T01440114
 
KTRM - Thermal/Palm Spg, California, USA
Distance from station: NE 75mi, 121km
Updated: 05/21/2018 8:52pm
Clear
Clear
 Wind from NNW
Wind: NNW 20 mph , 31 km/h, Gust: 30 mph , 48 km/h
Temperature: 75°F , 24°C
Dew Point: 48°F , 9°C
Humidity: 39%
Barometer: 29.65 inHg , 1004.1 hPa
Clouds: Clear
Visibility: 10 miles , 16 km
2018/05/22 03:52 KTRM 220352Z AUTO 33017G26KT 10SM CLR 24/09 A2965 RMK AO2 PK WND 32030/0339 SLP052 T02440094
KPSP - Palm Springs, California, USA
Distance from station: NNE 76mi, 122km
Updated: 05/21/2018 8:53pm
Clear
Clear
 Wind from NW
Wind: NW 23 mph , 37 km/h, Gust: 30 mph , 48 km/h
Temperature: 73°F , 23°C
Dew Point: 46°F , 8°C
Humidity: 38%
Barometer: 29.70 inHg , 1005.8 hPa
Clouds: Clear
Visibility: 10 miles , 16 km
2018/05/22 03:53 KPSP 220353Z 32020G26KT 10SM CLR 23/08 A2970 RMK AO2 PK WND 33029/0330 SLP054 T02330078
 
KSNA - Costa Mesa, California, USA
Distance from station: NW 76mi, 123km
Updated: 05/21/2018 8:53pm
Overcast
Overcast
 Wind from calm
Wind: Calm
Temperature: 63°F , 17°C
Dew Point: 54°F , 12°C
Humidity: 73%
Barometer: 29.88 inHg , 1011.9 hPa
Clouds: Overcast
Visibility: 10 miles , 16 km
Cloud details: Overcast 2400 ft
2018/05/22 03:53 KSNA 220353Z 00000KT 10SM OVC024 17/12 A2988 RMK AO2 SLP117 T01670117
KNJK - El Centro Naf, California, USA
Distance from station: E 79mi, 127km
Updated: 05/21/2018 8:56pm
Few Clouds
Few Clouds
 Wind from W
Wind: W 23 mph , 37 km/h
Temperature: 73°F , 23°C
Dew Point: 39°F , 4°C
Humidity: 29%
Barometer: 29.70 inHg , 1005.8 hPa
Clouds: Few Clouds
Visibility: 10 miles , 16 km
Cloud details: Few Clouds 8000 ft
Few Clouds 22000 ft
2018/05/22 03:56 KNJK 220356Z 27020KT 10SM FEW080 FEW220 23/04 A2970 RMK AO2 PK WND 25031/0259 SLP071 T02280044 $
 
KAJO - Corona Muni, California, USA
Distance from station: NNW 82mi, 132km
Updated: 05/21/2018 8:56pm

 Wind from W
Wind: W 6 mph , 9 km/h
Temperature: 61°F , 16°C
Dew Point: 52°F , 11°C
Humidity: 72%
Barometer: 29.88 inHg , 1011.9 hPa
Visibility: 10 miles , 16 km
2018/05/22 03:56 KAJO 220356Z AUTO 27005KT 10SM 16/11 A2988 RMK AO2 SLP127 T01610111 $